createdAt,value
2023-02-11T00:01:19.975Z,11.25
2023-02-11T00:03:46.524Z,11.30
2023-02-11T00:06:13.102Z,9.93
2023-02-11T00:08:39.688Z,10.50
2023-02-11T00:11:06.314Z,11.27
2023-02-11T00:13:32.773Z,10.45
2023-02-11T00:15:59.564Z,12.60
2023-02-11T00:18:26.045Z,10.38
2023-02-11T00:20:52.498Z,10.55
2023-02-11T00:23:19.068Z,11.05
2023-02-11T00:25:45.701Z,12.35
2023-02-11T00:28:12.648Z,11.65
2023-02-11T00:30:40.405Z,11.00
2023-02-11T00:33:08.015Z,11.52
2023-02-11T00:35:37.242Z,10.25
2023-02-11T00:38:03.859Z,10.48
2023-02-11T00:40:31.148Z,10.60
2023-02-11T00:42:57.571Z,9.43
2023-02-11T00:45:24.355Z,9.05
2023-02-11T00:47:50.801Z,9.82
2023-02-11T00:50:17.262Z,9.32
2023-02-11T00:52:43.771Z,9.27
2023-02-11T00:55:10.266Z,9.23
2023-02-11T00:57:36.961Z,9.77
2023-02-11T01:00:05.592Z,9.48
2023-02-11T01:02:32.053Z,9.82
2023-02-11T01:05:00.104Z,9.40
2023-02-11T01:07:27.885Z,8.82
2023-02-11T01:09:54.881Z,9.02
2023-02-11T01:12:21.425Z,8.85
2023-02-11T01:14:48.227Z,7.88
2023-02-11T01:17:14.756Z,8.40
2023-02-11T01:19:41.563Z,8.85
2023-02-11T01:22:08.025Z,8.30
2023-02-11T01:24:34.491Z,9.30
2023-02-11T01:27:00.964Z,8.15
2023-02-11T01:29:27.412Z,9.50
2023-02-11T01:31:54.510Z,8.70
2023-02-11T01:34:20.990Z,8.90
2023-02-11T01:36:47.453Z,8.95
2023-02-11T01:39:13.906Z,9.07
2023-02-11T01:41:40.407Z,9.95
2023-02-11T01:44:27.749Z,10.82
2023-02-11T01:46:54.668Z,10.20
2023-02-11T01:49:30.360Z,9.48
2023-02-11T01:52:09.334Z,8.75
2023-02-11T01:55:01.310Z,8.73
2023-02-11T01:57:32.325Z,8.48
2023-02-11T02:00:14.328Z,7.97
2023-02-11T02:03:08.012Z,7.93
2023-02-11T02:05:57.533Z,7.55
2023-02-11T02:08:38.939Z,8.48
2023-02-11T02:11:05.672Z,7.80
2023-02-11T02:13:34.296Z,8.23
2023-02-11T02:16:03.941Z,7.97
2023-02-11T02:19:03.226Z,6.88
2023-02-11T02:24:40.116Z,7.85
2023-02-11T02:27:23.893Z,8.32
2023-02-11T02:30:15.530Z,8.45
2023-02-11T02:32:54.105Z,9.15
2023-02-11T02:35:29.724Z,10.15
2023-02-11T02:38:03.005Z,9.18
2023-02-11T02:40:45.109Z,8.48
2023-02-11T02:43:13.711Z,7.60
2023-02-11T02:45:40.247Z,8.32
2023-02-11T02:48:06.947Z,8.23
2023-02-11T02:50:36.624Z,8.18
2023-02-11T02:53:40.800Z,8.02
2023-02-11T02:56:17.232Z,8.80
2023-02-11T03:01:33.173Z,7.88
2023-02-11T03:04:20.933Z,11.82
2023-02-11T03:07:22.300Z,9.38
2023-02-11T03:09:58.322Z,9.32
2023-02-11T03:12:27.752Z,10.50
2023-02-11T03:14:54.484Z,8.05
2023-02-11T03:17:22.808Z,9.48
2023-02-11T03:19:51.073Z,9.88
2023-02-11T03:22:24.311Z,9.73
2023-02-11T03:24:51.139Z,9.90
2023-02-11T03:27:30.146Z,8.55
2023-02-11T03:30:09.690Z,9.48
2023-02-11T03:32:49.775Z,8.45
2023-02-11T03:35:41.304Z,8.23
2023-02-11T03:38:15.825Z,8.75
2023-02-11T03:40:45.564Z,8.48
2023-02-11T03:43:18.108Z,9.63
2023-02-11T03:45:47.165Z,11.07
2023-02-11T03:48:13.630Z,9.38
2023-02-11T03:50:42.140Z,9.48
2023-02-11T03:53:10.271Z,8.80
2023-02-11T03:55:40.656Z,9.52
2023-02-11T03:58:08.279Z,9.60
2023-02-11T04:00:39.508Z,9.65
2023-02-11T04:03:06.963Z,9.65
2023-02-11T04:05:33.539Z,10.07
2023-02-11T04:08:00.009Z,9.77
2023-02-11T04:10:26.537Z,7.65
2023-02-11T04:12:53.102Z,7.72
2023-02-11T04:15:19.915Z,8.57
2023-02-11T04:17:46.370Z,8.18
2023-02-11T04:20:13.368Z,8.30
2023-02-11T04:22:39.871Z,9.07
2023-02-11T04:25:07.215Z,8.18
2023-02-11T04:27:33.886Z,9.30
2023-02-11T04:30:00.415Z,9.15
2023-02-11T04:32:26.885Z,10.20
2023-02-11T04:34:54.805Z,9.30
2023-02-11T04:37:21.448Z,8.65
2023-02-11T04:39:48.007Z,8.88
2023-02-11T04:42:14.504Z,9.35
2023-02-11T04:44:40.993Z,10.77
2023-02-11T04:47:07.455Z,9.65
2023-02-11T04:49:33.907Z,12.70
2023-02-11T04:52:00.352Z,11.43
2023-02-11T04:54:26.826Z,11.73
2023-02-11T04:56:53.349Z,13.25
2023-02-11T04:59:19.800Z,11.13
2023-02-11T05:01:46.286Z,12.15
2023-02-11T05:04:12.829Z,10.20
2023-02-11T05:06:39.837Z,11.00
2023-02-11T05:09:06.599Z,10.70
2023-02-11T05:11:33.189Z,10.43
2023-02-11T05:13:59.735Z,10.15
2023-02-11T05:16:26.206Z,11.15
2023-02-11T05:18:53.709Z,10.32
2023-02-11T05:21:20.439Z,10.30
2023-02-11T05:23:47.330Z,11.48
2023-02-11T05:26:14.298Z,10.65
2023-02-11T05:28:41.028Z,10.27
2023-02-11T05:31:08.182Z,9.15
2023-02-11T05:33:34.709Z,10.18
2023-02-11T05:36:07.002Z,11.13
2023-02-11T05:38:34.052Z,10.10
2023-02-11T05:41:01.217Z,10.05
2023-02-11T05:43:28.107Z,10.65
2023-02-11T05:45:54.911Z,11.07
2023-02-11T05:48:21.450Z,10.93
2023-02-11T05:50:47.907Z,13.07
2023-02-11T05:53:14.404Z,14.85
2023-02-11T05:55:40.979Z,13.27
2023-02-11T05:58:07.966Z,13.15
2023-02-11T06:00:35.116Z,9.93
2023-02-11T06:03:01.690Z,11.60
2023-02-11T06:05:28.206Z,11.27
2023-02-11T06:07:54.660Z,11.73
2023-02-11T06:10:21.517Z,11.85
2023-02-11T06:12:48.431Z,11.57
2023-02-11T06:15:14.910Z,11.70
2023-02-11T06:17:41.351Z,11.43
2023-02-11T06:20:10.048Z,12.52
2023-02-11T06:22:36.602Z,12.32
2023-02-11T06:25:03.307Z,12.80
2023-02-11T06:27:29.962Z,11.90
2023-02-11T06:29:56.452Z,12.32
2023-02-11T06:32:43.335Z,12.02
2023-02-11T06:35:11.954Z,13.52
2023-02-11T06:37:39.370Z,11.88
2023-02-11T06:40:06.322Z,11.82
2023-02-11T06:42:32.867Z,11.85
2023-02-11T06:44:59.336Z,13.25
2023-02-11T06:47:25.872Z,12.25
2023-02-11T06:49:52.329Z,16.50
2023-02-11T06:52:18.847Z,15.93
2023-02-11T06:54:45.282Z,15.00
2023-02-11T06:57:11.766Z,13.70
2023-02-11T06:59:38.223Z,12.55
2023-02-11T07:02:05.020Z,12.75
2023-02-11T07:04:31.536Z,13.02
2023-02-11T07:06:57.989Z,17.75
2023-02-11T07:09:24.439Z,13.55
2023-02-11T07:11:50.893Z,15.70
2023-02-11T07:14:17.450Z,13.98
2023-02-11T07:16:44.089Z,14.23
2023-02-11T07:19:10.833Z,13.68
2023-02-11T07:21:37.387Z,13.38
2023-02-11T07:24:10.789Z,12.98
2023-02-11T07:26:37.704Z,11.02
2023-02-11T07:29:04.204Z,20.42
2023-02-11T07:31:30.904Z,16.02
2023-02-11T07:34:00.212Z,13.57
2023-02-11T07:36:28.068Z,12.88
2023-02-11T07:38:54.553Z,12.95
2023-02-11T07:41:23.162Z,14.60
2023-02-11T07:43:50.241Z,14.23
2023-02-11T07:46:18.589Z,13.75
2023-02-11T07:48:45.123Z,15.23
2023-02-11T07:51:23.798Z,17.65
2023-02-11T07:53:51.862Z,15.27
2023-02-11T07:56:20.837Z,15.75
2023-02-11T07:58:47.652Z,17.15
2023-02-11T08:01:17.467Z,17.02
2023-02-11T08:03:44.399Z,27.38
2023-02-11T08:06:14.541Z,17.25
2023-02-11T08:08:41.849Z,14.90
2023-02-11T08:11:11.033Z,16.48
2023-02-11T08:13:37.567Z,19.67
2023-02-11T08:16:05.135Z,16.15
2023-02-11T08:18:33.049Z,13.57
2023-02-11T08:21:07.237Z,14.27
2023-02-11T08:23:36.075Z,16.35
2023-02-11T08:26:10.122Z,14.95
2023-02-11T08:28:38.915Z,15.00
2023-02-11T08:31:18.087Z,16.05
2023-02-11T08:33:44.958Z,14.13
2023-02-11T08:36:14.781Z,13.75
2023-02-11T08:38:41.914Z,13.35
2023-02-11T08:41:09.186Z,13.73
2023-02-11T08:43:36.778Z,13.70
2023-02-11T08:46:03.508Z,13.77
2023-02-11T08:48:30.181Z,14.73
2023-02-11T08:50:57.546Z,16.50
2023-02-11T08:53:24.918Z,14.10
2023-02-11T08:55:53.981Z,20.13
2023-02-11T08:58:21.875Z,18.80
2023-02-11T09:00:49.817Z,14.77
2023-02-11T09:03:16.825Z,14.57
2023-02-11T09:05:49.933Z,15.02
2023-02-11T09:08:16.958Z,14.55
2023-02-11T09:10:43.496Z,13.63
2023-02-11T09:13:10.258Z,13.57
2023-02-11T09:15:37.088Z,13.02
2023-02-11T09:18:04.884Z,13.18
2023-02-11T09:20:31.983Z,14.95
2023-02-11T09:22:59.216Z,15.50
2023-02-11T09:25:26.063Z,16.48
2023-02-11T09:27:53.730Z,18.92
2023-02-11T09:30:20.333Z,16.98
2023-02-11T09:32:46.797Z,15.45
2023-02-11T09:35:13.243Z,14.77
2023-02-11T09:37:39.690Z,15.32
2023-02-11T09:40:06.644Z,13.27
2023-02-11T09:42:42.089Z,12.85
2023-02-11T09:45:19.699Z,12.85
2023-02-11T09:47:54.301Z,12.30
2023-02-11T09:50:36.559Z,11.02
2023-02-11T09:53:24.083Z,9.40
2023-02-11T09:55:59.736Z,10.43
2023-02-11T09:58:33.153Z,12.02
2023-02-11T10:01:25.153Z,11.30
2023-02-11T10:03:54.499Z,11.93
2023-02-11T10:06:32.939Z,11.10
2023-02-11T10:09:26.316Z,10.75
2023-02-11T10:12:10.849Z,12.55
2023-02-11T10:15:00.783Z,11.38
2023-02-11T10:17:58.116Z,10.35
2023-02-11T10:20:36.549Z,10.02
2023-02-11T10:23:13.469Z,9.38
2023-02-11T10:25:48.081Z,7.28
2023-02-11T10:28:20.640Z,7.18
2023-02-11T10:31:01.545Z,6.97
2023-02-11T10:33:33.049Z,6.57
2023-02-11T10:35:59.978Z,6.00
2023-02-11T10:38:27.820Z,6.63
2023-02-11T10:40:54.309Z,6.05
2023-02-11T10:43:26.764Z,7.15
2023-02-11T10:45:55.890Z,6.53
2023-02-11T10:48:44.041Z,7.07
2023-02-11T10:51:12.264Z,6.40
2023-02-11T10:53:39.869Z,6.28
2023-02-11T10:56:10.501Z,6.25
2023-02-11T10:58:45.304Z,6.13
2023-02-11T11:01:23.895Z,5.90
2023-02-11T11:03:52.691Z,6.60
2023-02-11T11:06:31.301Z,5.88
2023-02-11T11:08:58.173Z,4.75
2023-02-11T11:11:26.213Z,5.22
2023-02-11T11:13:52.688Z,4.40
2023-02-11T11:16:22.114Z,5.22
2023-02-11T11:18:51.130Z,4.50
2023-02-11T11:21:26.430Z,4.70
2023-02-11T11:24:01.201Z,4.88
2023-02-11T11:26:43.848Z,4.20
2023-02-11T11:29:17.793Z,5.07
2023-02-11T11:31:55.190Z,4.05
2023-02-11T11:34:40.567Z,3.88
2023-02-11T11:37:11.734Z,3.70
2023-02-11T11:39:39.781Z,3.70
2023-02-11T11:42:25.825Z,4.03
2023-02-11T11:45:23.111Z,4.67
2023-02-11T11:50:36.810Z,5.47
2023-02-11T11:53:20.813Z,5.15
2023-02-11T11:56:00.992Z,5.78
2023-02-11T11:58:29.863Z,5.68
2023-02-11T12:01:05.583Z,5.85
2023-02-11T12:04:09.393Z,5.53
2023-02-11T12:06:54.634Z,5.03
2023-02-11T12:09:39.492Z,4.88
2023-02-11T12:12:40.164Z,4.30
2023-02-11T12:15:29.723Z,4.07
2023-02-11T12:18:25.567Z,3.80
2023-02-11T12:21:03.192Z,4.75
2023-02-11T12:23:47.946Z,3.88
2023-02-11T12:26:32.912Z,4.53
2023-02-11T12:29:20.433Z,4.60
2023-02-11T12:32:14.890Z,5.30
2023-02-11T12:35:07.009Z,4.47
2023-02-11T12:37:48.698Z,4.93
2023-02-11T12:40:43.826Z,4.15
2023-02-11T12:43:23.503Z,3.80
2023-02-11T12:46:09.837Z,4.22
2023-02-11T12:48:45.500Z,3.88
2023-02-11T12:51:34.373Z,4.95
2023-02-11T12:54:14.180Z,3.45
2023-02-11T12:56:52.820Z,3.25
2023-02-11T12:59:43.795Z,2.88
2023-02-11T13:02:41.619Z,2.30
2023-02-11T13:05:22.500Z,2.95
2023-02-11T13:07:51.906Z,2.95
2023-02-11T13:10:24.513Z,3.05
2023-02-11T13:13:11.312Z,3.08
2023-02-11T13:18:22.274Z,3.50
2023-02-11T13:21:04.576Z,4.53
2023-02-11T13:23:42.990Z,2.38
2023-02-11T13:26:41.127Z,3.45
2023-02-11T13:29:25.351Z,2.83
2023-02-11T13:31:55.629Z,2.60
2023-02-11T13:34:45.152Z,2.28
2023-02-11T13:37:22.490Z,1.90
2023-02-11T13:40:03.023Z,1.40
2023-02-11T13:42:30.995Z,1.48
2023-02-11T13:44:58.039Z,1.15
2023-02-11T13:47:31.280Z,2.03
2023-02-11T13:49:59.356Z,1.02
2023-02-11T13:52:29.589Z,1.45
2023-02-11T13:55:02.915Z,1.88
2023-02-11T13:57:34.924Z,1.98
2023-02-11T14:00:26.595Z,1.40
2023-02-11T14:03:30.198Z,1.38
2023-02-11T14:06:27.431Z,1.30
2023-02-11T14:09:09.466Z,1.40
2023-02-11T14:11:55.326Z,1.30
2023-02-11T14:14:33.512Z,1.97
2023-02-11T14:17:00.224Z,1.80
2023-02-11T14:19:34.939Z,1.50
2023-02-11T14:22:03.161Z,1.30
2023-02-11T14:24:30.947Z,1.55
2023-02-11T14:27:15.379Z,1.50
2023-02-11T14:30:20.523Z,1.45
2023-02-11T14:33:11.772Z,1.40
2023-02-11T14:35:48.577Z,2.35
2023-02-11T14:38:51.841Z,1.75
2023-02-11T14:41:27.518Z,1.90
2023-02-11T14:43:59.397Z,1.70
2023-02-11T14:46:27.811Z,1.67
2023-02-11T14:48:57.566Z,1.85
2023-02-11T14:51:44.120Z,2.17
2023-02-11T14:54:19.569Z,2.33
2023-02-11T14:56:46.795Z,1.67
2023-02-11T14:59:19.744Z,1.42
2023-02-11T15:01:50.268Z,1.80
2023-02-11T15:04:31.925Z,1.63
2023-02-11T15:07:04.906Z,2.28
2023-02-11T15:09:38.205Z,2.35
2023-02-11T15:12:05.101Z,2.92
2023-02-11T15:14:33.797Z,2.78
2023-02-11T15:17:07.975Z,2.90
2023-02-11T15:19:38.439Z,2.50
2023-02-11T15:22:07.345Z,2.70
2023-02-11T15:24:35.654Z,2.58
2023-02-11T15:27:08.078Z,2.55
2023-02-11T15:29:37.754Z,2.88
2023-02-11T15:32:13.560Z,2.80
2023-02-11T15:34:40.524Z,3.78
2023-02-11T15:37:07.371Z,3.40
2023-02-11T15:39:37.909Z,3.28
2023-02-11T15:42:17.487Z,3.33
2023-02-11T15:44:44.090Z,3.47
2023-02-11T15:47:18.929Z,3.35
2023-02-11T15:49:46.876Z,3.70
2023-02-11T15:52:25.621Z,4.00
2023-02-11T15:54:53.650Z,4.32
2023-02-11T15:57:22.914Z,4.63
2023-02-11T15:59:52.838Z,4.50
2023-02-11T16:02:25.332Z,4.22
2023-02-11T16:04:57.471Z,4.97
2023-02-11T16:07:40.604Z,4.72
2023-02-11T16:10:24.229Z,5.28
2023-02-11T16:13:06.564Z,4.63
2023-02-11T16:15:50.604Z,5.07
2023-02-11T16:18:34.035Z,5.25
2023-02-11T16:23:35.352Z,5.53
2023-02-11T16:26:08.733Z,6.55
2023-02-11T16:28:37.309Z,6.05
2023-02-11T16:31:04.903Z,5.28
2023-02-11T16:33:31.557Z,5.78
2023-02-11T16:36:01.990Z,6.00
2023-02-11T16:38:29.381Z,5.82
2023-02-11T16:40:55.861Z,5.78
2023-02-11T16:43:22.320Z,5.43
2023-02-11T16:45:48.992Z,4.85
2023-02-11T16:48:19.176Z,4.95
2023-02-11T16:50:51.360Z,5.30
2023-02-11T16:53:23.443Z,4.85
2023-02-11T16:55:51.224Z,5.13
2023-02-11T16:58:18.101Z,7.13
2023-02-11T17:00:47.012Z,5.60
2023-02-11T17:03:28.194Z,4.65
2023-02-11T17:05:56.262Z,4.40
2023-02-11T17:08:22.786Z,4.90
2023-02-11T17:10:49.687Z,3.72
2023-02-11T17:13:16.429Z,5.70
2023-02-11T17:15:42.918Z,7.10
2023-02-11T17:18:13.318Z,6.40
2023-02-11T17:20:40.404Z,7.60
2023-02-11T17:23:07.238Z,6.15
2023-02-11T17:25:33.728Z,5.85
2023-02-11T17:28:00.241Z,5.47
2023-02-11T17:30:26.713Z,5.25
2023-02-11T17:32:53.174Z,5.25
2023-02-11T17:35:19.614Z,6.68
2023-02-11T17:37:46.109Z,7.70
2023-02-11T17:40:13.795Z,7.30
2023-02-11T17:42:40.328Z,6.70
2023-02-11T17:45:08.524Z,7.65
2023-02-11T17:47:35.485Z,7.10
2023-02-11T17:50:03.115Z,6.68
2023-02-11T17:52:29.668Z,5.05
2023-02-11T17:54:56.298Z,7.18
2023-02-11T17:57:22.757Z,7.78
2023-02-11T17:59:49.223Z,7.70
2023-02-11T18:02:15.724Z,6.07
2023-02-11T18:04:42.273Z,7.50
2023-02-11T18:07:08.789Z,7.10
2023-02-11T18:09:40.376Z,10.13
2023-02-11T18:12:08.018Z,20.35
2023-02-11T18:14:34.648Z,12.52
2023-02-11T18:17:01.255Z,8.60
2023-02-11T18:19:30.549Z,7.88
2023-02-11T18:22:00.792Z,8.57
2023-02-11T18:24:27.524Z,8.80
2023-02-11T18:26:53.953Z,10.60
2023-02-11T18:29:20.480Z,8.10
2023-02-11T18:31:47.015Z,5.93
2023-02-11T18:34:13.542Z,7.43
2023-02-11T18:36:40.007Z,7.70
2023-02-11T18:39:06.517Z,8.68
2023-02-11T18:41:33.175Z,8.73
2023-02-11T18:44:02.783Z,10.20
2023-02-11T18:46:29.727Z,9.68
2023-02-11T18:48:56.447Z,10.35
2023-02-11T18:51:23.619Z,7.85
2023-02-11T18:53:50.147Z,7.55
2023-02-11T18:56:20.642Z,9.13
2023-02-11T18:58:47.772Z,9.50
2023-02-11T19:01:27.312Z,7.97
2023-02-11T19:03:56.293Z,7.63
2023-02-11T19:06:33.307Z,6.70
2023-02-11T19:09:01.967Z,7.70
2023-02-11T19:11:48.979Z,7.10
2023-02-11T19:14:18.236Z,7.63
2023-02-11T19:16:46.332Z,11.82
2023-02-11T19:19:13.773Z,12.88
2023-02-11T19:21:43.450Z,9.18
2023-02-11T19:24:10.931Z,7.63
2023-02-11T19:26:37.716Z,8.48
2023-02-11T19:29:05.991Z,9.57
2023-02-11T19:31:32.832Z,7.97
2023-02-11T19:34:00.476Z,10.65
2023-02-11T19:36:27.266Z,10.35
2023-02-11T19:38:53.997Z,7.25
2023-02-11T19:41:22.458Z,6.75
2023-02-11T19:43:52.800Z,5.68
2023-02-11T19:46:20.987Z,6.28
2023-02-11T19:48:48.860Z,7.60
2023-02-11T19:51:15.931Z,6.93
2023-02-11T19:53:44.515Z,9.40
2023-02-11T19:56:13.290Z,10.30
2023-02-11T19:58:40.205Z,12.23
2023-02-11T20:01:09.664Z,13.15
2023-02-11T20:03:36.720Z,20.67
2023-02-11T20:06:13.080Z,10.32
2023-02-11T20:08:39.967Z,9.27
2023-02-11T20:11:12.436Z,11.13
2023-02-11T20:13:39.720Z,9.35
2023-02-11T20:16:09.323Z,8.27
2023-02-11T20:18:36.651Z,8.35
2023-02-11T20:21:18.889Z,8.25
2023-02-11T20:23:46.594Z,7.95
2023-02-11T20:26:27.805Z,7.50
2023-02-11T20:28:55.499Z,6.50
2023-02-11T20:31:23.098Z,6.63
2023-02-11T20:33:49.945Z,6.28
2023-02-11T20:36:20.308Z,6.60
2023-02-11T20:38:46.845Z,6.38
2023-02-11T20:41:20.168Z,6.57
2023-02-11T20:43:49.537Z,7.97
2023-02-11T20:46:17.360Z,7.43
2023-02-11T20:48:43.882Z,8.52
2023-02-11T20:51:12.781Z,7.13
2023-02-11T20:53:41.647Z,7.93
2023-02-11T20:56:11.269Z,7.07
2023-02-11T20:58:38.975Z,7.38
2023-02-11T21:01:16.614Z,6.43
2023-02-11T21:03:53.749Z,6.40
2023-02-11T21:06:21.660Z,9.57
2023-02-11T21:08:48.128Z,8.93
2023-02-11T21:11:15.065Z,10.57
2023-02-11T21:13:42.650Z,12.23
2023-02-11T21:16:13.482Z,11.98
2023-02-11T21:18:40.008Z,9.88
2023-02-11T21:21:07.106Z,10.85
2023-02-11T21:23:33.664Z,9.20
2023-02-11T21:26:00.141Z,8.70
2023-02-11T21:28:26.718Z,8.32
2023-02-11T21:30:54.747Z,7.20
2023-02-11T21:33:22.409Z,7.55
2023-02-11T21:35:49.005Z,6.20
2023-02-11T21:38:16.098Z,8.18
2023-02-11T21:40:42.597Z,8.00
2023-02-11T21:43:09.056Z,9.93
2023-02-11T21:45:35.632Z,11.38
2023-02-11T21:48:02.157Z,11.55
2023-02-11T21:50:28.600Z,8.77
2023-02-11T21:52:55.246Z,7.45
2023-02-11T21:55:21.705Z,7.30
2023-02-11T21:57:48.166Z,8.45
2023-02-11T22:00:15.298Z,8.20
2023-02-11T22:02:42.384Z,8.05
2023-02-11T22:05:08.959Z,8.95
2023-02-11T22:07:36.447Z,8.45
2023-02-11T22:10:03.966Z,10.00
2023-02-11T22:12:30.724Z,10.35
2023-02-11T22:14:57.196Z,9.88
2023-02-11T22:17:23.745Z,10.07
2023-02-11T22:19:50.191Z,10.10
2023-02-11T22:22:18.324Z,8.82
2023-02-11T22:24:48.433Z,8.10
2023-02-11T22:27:19.897Z,6.80
2023-02-11T22:29:46.767Z,8.60
2023-02-11T22:32:13.439Z,10.48
2023-02-11T22:34:40.086Z,9.23
2023-02-11T22:37:07.499Z,9.90
2023-02-11T22:39:34.155Z,8.45
2023-02-11T22:42:00.656Z,8.50
2023-02-11T22:44:27.172Z,8.93
2023-02-11T22:46:54.139Z,9.05
2023-02-11T22:49:21.609Z,11.02
2023-02-11T22:51:48.810Z,13.57
2023-02-11T22:54:17.761Z,10.75
2023-02-11T22:56:45.212Z,10.32
2023-02-11T22:59:14.401Z,9.18
2023-02-11T23:01:42.099Z,9.70
2023-02-11T23:04:12.087Z,14.82
2023-02-11T23:06:38.938Z,11.60
2023-02-11T23:09:10.092Z,11.35
2023-02-11T23:11:36.610Z,9.77
2023-02-11T23:14:03.860Z,9.63
2023-02-11T23:16:33.592Z,10.00
2023-02-11T23:19:02.153Z,10.10
2023-02-11T23:21:31.217Z,9.48
2023-02-11T23:24:04.208Z,10.18
2023-02-11T23:26:31.101Z,10.88
2023-02-11T23:28:59.198Z,10.18
2023-02-11T23:31:37.437Z,10.57
2023-02-11T23:34:04.467Z,10.55
2023-02-11T23:36:31.538Z,12.35
2023-02-11T23:38:58.679Z,12.85
2023-02-11T23:41:25.727Z,12.65
2023-02-11T23:43:54.639Z,12.02
2023-02-11T23:46:24.371Z,12.77
2023-02-11T23:48:51.661Z,11.85
2023-02-11T23:51:19.207Z,11.25
2023-02-11T23:53:46.231Z,10.80
2023-02-11T23:56:25.788Z,12.15
2023-02-11T23:58:54.676Z,12.23
